Time,TemperatureF,DewpointF,PressureIn,WindDirection,WindDirectionDegrees,WindSpeedMPH,WindSpeedGustMPH,Humidity,HourlyPrecipIn,Conditions,Clouds,dailyrainin,SolarRadiationWatts/m^2,SoftwareType,DateUTC
2013-05-21 00:02:00,47.0,34.0,-100.00,NE,49,8.0,12.0,60,0.00,,,0.02,0.000000,,2013-05-21 06:02:00,
2013-05-21 00:32:00,45.0,34.0,-100.00,NNE,29,9.0,15.0,66,0.00,,,0.02,0.000000,,2013-05-21 06:32:00,
2013-05-21 00:42:00,45.0,34.0,-100.00,NNE,29,9.0,15.0,66,0.00,,,0.02,0.000000,,2013-05-21 06:42:00,
2013-05-21 00:52:00,45.0,34.0,-100.00,NNE,29,9.0,15.0,66,0.00,,,0.02,0.000000,,2013-05-21 06:52:00,
2013-05-21 01:01:00,45.0,34.0,-100.00,NNE,29,9.0,15.0,66,0.00,,,0.02,0.000000,,2013-05-21 07:01:00,
2013-05-21 01:32:00,45.0,34.0,-100.00,ENE,70,7.0,12.0,65,0.00,,,0.02,0.000000,,2013-05-21 07:32:00,
2013-05-21 01:42:00,45.0,34.0,-100.00,ENE,70,7.0,12.0,65,0.00,,,0.02,0.000000,,2013-05-21 07:42:00,
2013-05-21 01:52:00,45.0,34.0,-100.00,ENE,70,7.0,12.0,65,0.00,,,0.02,0.000000,,2013-05-21 07:52:00,
2013-05-21 02:01:00,45.0,34.0,-100.00,ENE,70,7.0,12.0,65,0.00,,,0.02,0.000000,,2013-05-21 08:01:00,
2013-05-21 03:33:00,44.0,34.0,-100.00,ENE,63,9.0,15.0,69,-99.99,,,0.02,0.000000,,2013-05-21 09:33:00,
2013-05-21 03:42:00,44.0,34.0,-100.00,ENE,63,9.0,15.0,69,-99.99,,,0.02,0.000000,,2013-05-21 09:42:00,
2013-05-21 03:53:00,44.0,34.0,-100.00,ENE,63,9.0,15.0,69,-99.99,,,0.02,0.000000,,2013-05-21 09:53:00,
2013-05-21 04:02:00,44.0,34.0,-100.00,ENE,63,9.0,15.0,69,-99.99,,,0.02,0.000000,,2013-05-21 10:02:00,
2013-05-21 04:33:00,44.0,34.0,-100.00,East,81,11.0,17.0,67,0.00,,,0.02,0.000000,,2013-05-21 10:33:00,
2013-05-21 04:42:00,44.0,34.0,-100.00,East,81,11.0,17.0,67,0.00,,,0.02,0.000000,,2013-05-21 10:42:00,
2013-05-21 04:52:00,44.0,34.0,-100.00,East,81,11.0,17.0,67,0.00,,,0.02,0.000000,,2013-05-21 10:52:00,
2013-05-21 05:02:00,44.0,34.0,-100.00,East,81,11.0,17.0,67,0.00,,,0.02,0.000000,,2013-05-21 11:02:00,
2013-05-21 05:32:00,44.0,33.0,-100.00,ENE,72,8.0,16.0,66,0.00,,,0.02,0.000000,,2013-05-21 11:32:00,
2013-05-21 05:42:00,44.0,33.0,-100.00,ENE,72,8.0,16.0,66,0.00,,,0.02,0.000000,,2013-05-21 11:42:00,
2013-05-21 05:52:00,44.0,33.0,-100.00,ENE,72,8.0,16.0,66,0.00,,,0.02,0.000000,,2013-05-21 11:52:00,
2013-05-21 06:01:00,44.0,33.0,-100.00,ENE,72,8.0,16.0,66,0.00,,,0.02,0.000000,,2013-05-21 12:01:00,
2013-05-21 06:32:00,43.0,33.0,-100.00,NE,45,8.0,16.0,68,0.00,,,0.02,2.000000,,2013-05-21 12:32:00,
2013-05-21 06:42:00,43.0,33.0,-100.00,NE,45,8.0,16.0,68,0.00,,,0.02,2.000000,,2013-05-21 12:42:00,
2013-05-21 06:52:00,43.0,33.0,-100.00,NE,45,8.0,16.0,68,0.00,,,0.02,2.000000,,2013-05-21 12:52:00,
2013-05-21 07:01:00,43.0,33.0,-100.00,NE,45,8.0,16.0,68,0.00,,,0.02,2.000000,,2013-05-21 13:01:00,
2013-05-21 07:32:00,47.0,34.0,-100.00,ENE,59,6.0,16.0,61,0.00,,,-99.99,83.000000,,2013-05-21 13:32:00,
2013-05-21 07:52:00,47.0,34.0,-100.00,ENE,59,6.0,16.0,61,0.00,,,-99.99,83.000000,,2013-05-21 13:52:00,
2013-05-21 08:01:00,47.0,34.0,-100.00,ENE,59,6.0,16.0,61,0.00,,,-99.99,83.000000,,2013-05-21 14:01:00,
2013-05-21 08:32:00,49.0,35.0,-100.00,ESE,116,9.0,14.0,59,-99.99,,,0.02,281.000000,,2013-05-21 14:32:00,
2013-05-21 08:42:00,49.0,35.0,-100.00,ESE,116,9.0,14.0,59,-99.99,,,0.02,281.000000,,2013-05-21 14:42:00,
2013-05-21 08:52:00,49.0,35.0,-100.00,ESE,116,9.0,14.0,59,-99.99,,,0.02,281.000000,,2013-05-21 14:52:00,
2013-05-21 09:01:00,49.0,35.0,-100.00,ESE,116,9.0,14.0,59,-99.99,,,0.02,281.000000,,2013-05-21 15:01:00,
2013-05-21 10:32:00,51.0,34.0,-100.00,SE,144,15.0,22.0,53,-99.99,,,0.02,312.000000,,2013-05-21 16:32:00,
2013-05-21 10:42:00,51.0,34.0,-100.00,SE,144,15.0,22.0,53,-99.99,,,0.02,312.000000,,2013-05-21 16:42:00,
2013-05-21 10:52:00,51.0,34.0,-100.00,SE,144,15.0,22.0,53,-99.99,,,0.02,312.000000,,2013-05-21 16:52:00,
2013-05-21 11:02:00,51.0,34.0,-100.00,SE,144,15.0,22.0,53,-99.99,,,0.02,312.000000,,2013-05-21 17:02:00,
2013-05-21 11:33:00,55.0,36.0,-100.00,SE,134,14.0,26.0,48,0.00,,,0.02,759.000000,,2013-05-21 17:33:00,
2013-05-21 11:44:00,55.0,36.0,-100.00,SE,134,14.0,26.0,48,0.00,,,0.02,759.000000,,2013-05-21 17:44:00,
2013-05-21 11:52:00,55.0,36.0,-100.00,SE,134,14.0,26.0,48,0.00,,,0.02,759.000000,,2013-05-21 17:52:00,
2013-05-21 12:01:00,55.0,36.0,-100.00,SE,134,14.0,26.0,48,0.00,,,0.02,759.000000,,2013-05-21 18:01:00,
2013-05-21 12:32:00,58.0,34.0,-100.00,SE,138,12.0,23.0,40,0.00,,,0.02,961.000000,,2013-05-21 18:32:00,
2013-05-21 12:42:00,58.0,34.0,-100.00,SE,138,12.0,23.0,40,0.00,,,0.02,961.000000,,2013-05-21 18:42:00,
2013-05-21 12:52:00,58.0,34.0,-100.00,SE,138,12.0,23.0,40,0.00,,,0.02,961.000000,,2013-05-21 18:52:00,
2013-05-21 13:01:00,58.0,34.0,-100.00,SE,138,12.0,23.0,40,0.00,,,0.02,961.000000,,2013-05-21 19:01:00,
2013-05-21 13:32:00,61.0,31.0,-100.00,SE,140,16.0,25.0,32,0.00,,,-99.99,1171.000000,,2013-05-21 19:32:00,
2013-05-21 13:42:00,61.0,31.0,-100.00,SE,140,16.0,25.0,32,0.00,,,-99.99,1171.000000,,2013-05-21 19:42:00,
2013-05-21 13:52:00,61.0,31.0,-100.00,SE,140,16.0,25.0,32,0.00,,,-99.99,1171.000000,,2013-05-21 19:52:00,
2013-05-21 14:03:00,61.0,31.0,-100.00,SE,140,16.0,25.0,32,0.00,,,-99.99,1171.000000,,2013-05-21 20:03:00,
2013-05-21 14:32:00,61.0,29.0,-100.00,SSE,155,14.0,28.0,30,0.00,,,0.02,586.000000,,2013-05-21 20:32:00,
2013-05-21 14:42:00,61.0,29.0,-100.00,SSE,155,14.0,28.0,30,0.00,,,0.02,586.000000,,2013-05-21 20:42:00,
2013-05-21 14:52:00,61.0,29.0,-100.00,SSE,155,14.0,28.0,30,0.00,,,0.02,586.000000,,2013-05-21 20:52:00,
2013-05-21 15:01:00,61.0,29.0,-100.00,SSE,155,14.0,28.0,30,0.00,,,0.02,586.000000,,2013-05-21 21:01:00,
2013-05-21 15:33:00,60.0,30.0,-100.00,SE,139,16.0,30.0,32,0.00,,,-99.99,602.000000,,2013-05-21 21:33:00,
2013-05-21 15:43:00,60.0,30.0,-100.00,SE,139,16.0,30.0,32,0.00,,,-99.99,602.000000,,2013-05-21 21:43:00,
2013-05-21 15:54:00,60.0,30.0,-100.00,SE,139,16.0,30.0,32,0.00,,,-99.99,602.000000,,2013-05-21 21:54:00,
2013-05-21 16:02:00,60.0,30.0,-100.00,SE,139,16.0,30.0,32,0.00,,,-99.99,602.000000,,2013-05-21 22:02:00,
2013-05-21 16:33:00,58.0,33.0,-100.00,SE,137,18.0,34.0,38,0.00,,,0.02,338.000000,,2013-05-21 22:33:00,
2013-05-21 16:42:00,58.0,33.0,-100.00,SE,137,18.0,34.0,38,0.00,,,0.02,338.000000,,2013-05-21 22:42:00,
2013-05-21 16:52:00,58.0,33.0,-100.00,SE,137,18.0,34.0,38,0.00,,,0.02,338.000000,,2013-05-21 22:52:00,
2013-05-21 17:02:00,58.0,33.0,-100.00,SE,137,18.0,34.0,38,0.00,,,0.02,338.000000,,2013-05-21 23:02:00,
2013-05-21 17:32:00,57.0,33.0,-100.00,SSE,155,8.0,21.0,40,0.00,,,0.02,179.000000,,2013-05-21 23:32:00,
2013-05-21 17:42:00,57.0,33.0,-100.00,SSE,155,8.0,21.0,40,0.00,,,0.02,179.000000,,2013-05-21 23:42:00,
2013-05-21 17:52:00,57.0,33.0,-100.00,SSE,155,8.0,21.0,40,0.00,,,0.02,179.000000,,2013-05-21 23:52:00,
2013-05-21 18:01:00,57.0,33.0,-100.00,SSE,155,8.0,21.0,40,0.00,,,0.02,179.000000,,2013-05-22 00:01:00,
2013-05-21 18:32:00,57.0,32.0,-100.00,East,88,12.0,31.0,39,0.00,,,0.02,242.000000,,2013-05-22 00:32:00,
2013-05-21 18:42:00,57.0,32.0,-100.00,East,88,12.0,31.0,39,0.00,,,0.02,242.000000,,2013-05-22 00:42:00,
2013-05-21 18:52:00,57.0,32.0,-100.00,East,88,12.0,31.0,39,0.00,,,0.02,242.000000,,2013-05-22 00:52:00,
2013-05-21 19:01:00,57.0,32.0,-100.00,East,88,12.0,31.0,39,0.00,,,0.02,242.000000,,2013-05-22 01:01:00,
2013-05-21 19:32:00,54.0,34.0,-100.00,ESE,123,13.0,33.0,47,0.00,,,0.00,139.000000,,2013-05-22 01:32:00,
2013-05-21 19:42:00,54.0,34.0,-100.00,ESE,123,13.0,33.0,47,0.00,,,0.00,139.000000,,2013-05-22 01:42:00,
2013-05-21 19:52:00,54.0,34.0,-100.00,ESE,123,13.0,33.0,47,0.00,,,0.00,139.000000,,2013-05-22 01:52:00,
2013-05-21 20:01:00,54.0,34.0,-100.00,ESE,123,13.0,33.0,47,0.00,,,0.00,139.000000,,2013-05-22 02:01:00,
2013-05-21 20:32:00,52.0,36.0,-100.00,SE,134,16.0,33.0,55,0.00,,,0.00,271.000000,,2013-05-22 02:32:00,
2013-05-21 20:42:00,52.0,36.0,-100.00,SE,134,16.0,33.0,55,0.00,,,0.00,271.000000,,2013-05-22 02:42:00,
2013-05-21 20:52:00,52.0,36.0,-100.00,SE,134,16.0,33.0,55,0.00,,,0.00,271.000000,,2013-05-22 02:52:00,
2013-05-21 21:01:00,52.0,36.0,-100.00,SE,134,16.0,33.0,55,0.00,,,0.00,271.000000,,2013-05-22 03:01:00,
2013-05-21 21:33:00,48.0,36.0,-100.00,NE,38,6.0,26.0,62,0.00,,,0.00,31.000000,,2013-05-22 03:33:00,
2013-05-21 21:43:00,48.0,36.0,-100.00,NE,38,6.0,26.0,62,0.00,,,0.00,31.000000,,2013-05-22 03:43:00,
2013-05-21 21:53:00,48.0,36.0,-100.00,NE,38,6.0,26.0,62,0.00,,,0.00,31.000000,,2013-05-22 03:53:00,
2013-05-21 22:03:00,48.0,36.0,-100.00,NE,38,6.0,26.0,62,0.00,,,0.00,31.000000,,2013-05-22 04:03:00,
2013-05-21 22:33:00,49.0,36.0,-100.00,ENE,70,5.0,11.0,60,0.00,,,0.00,0.000000,,2013-05-22 04:33:00,
2013-05-21 22:43:00,49.0,36.0,-100.00,ENE,70,5.0,11.0,60,0.00,,,0.00,0.000000,,2013-05-22 04:43:00,
2013-05-21 22:53:00,49.0,36.0,-100.00,ENE,70,5.0,11.0,60,0.00,,,0.00,0.000000,,2013-05-22 04:53:00,
2013-05-21 23:02:00,49.0,36.0,-100.00,ENE,70,5.0,11.0,60,0.00,,,0.00,0.000000,,2013-05-22 05:02:00,
2013-05-21 23:32:00,49.0,35.0,-100.00,South,187,8.0,19.0,59,0.00,,,0.00,0.000000,,2013-05-22 05:32:00,
2013-05-21 23:42:00,49.0,35.0,-100.00,South,187,8.0,19.0,59,0.00,,,0.00,0.000000,,2013-05-22 05:42:00,
2013-05-21 23:52:00,49.0,35.0,-100.00,South,187,8.0,19.0,59,0.00,,,0.00,0.000000,,2013-05-22 05:52:00,